メインページ
METAR-TAF:

METAR-TAF

空港 :

ヌジリ国際空港

キンシャサ, コンゴ

緯度: 04-23S, 経度: 015-26E, 海抜: 309m

現時点の気象観測

当レポートは3時間38分前の02:00(UTC)に作成
無風
気温 22°C
湿度 100%
気圧 1011 hPa
視程: 4000m
高度1200ftの雲は散在している

METAR: FZAA 220200Z 00000KT 4000 SCT012 22/22 Q1011 NOSIG

時間: 06:38 (05:38 UTC)

予報

当レポートは6時間38分前の23:00(UTC)に作成
予報は22日の 00時(UTC)から 23日の 06時(UTC)まで有効
南西の風 4kt
視程: 9000m
22日の 10時(UTC)から 22日の 12時(UTC)まで徐々に
北西の風 10kt
高度2400ftの雲は散在している
高度3000ftの雲はほとんどない, 積乱雲.
確率 30% :
22日の 14時(UTC)から 22日の 18時(UTC)まで一時的に
激しい雷雨
22日の 23時(UTC)から 23日の 01時(UTC)まで徐々に
の風 2kt
高度1800ftの千切れ雲あり

TAF: FZAA 212300Z 2200/2306 23004KT 9000 NSC BECMG 2210/2212 32010KT SCT024 FEW030CB PROB30 TEMPO 2214/2218 TS BECMG 2223/2301 18002KT BKN018

4,000以上の空港の気象観測と天気予報(METAR報とTAF報)

利用可能な観測所は地図上に黄色い丸と赤い丸で示す。

丸の上にカーソルを重ねると観測所名を参照できる。

次にクリックすると気象観測と天気予報を参照できる。

マップの切り替え:黒色「×」印の緑ボタンをクリックして拡大、「-」印の緑ボタンをクリックして縮小、緑色の三角印をクリックして隣りの地図に切り替え


METAR-TAF: